METAR Data
IDs: Format: Raw Decoded Include TAF

Data at: 0623 UTC 23 Feb 2019

PAII 230556Z AUTO 12008KT 10SM SCT080 BKN110 M01/M02 A3023 RMK AO2 SLP240 T10111022 11006 21039 53005 FZRANO
PAII 230456Z AUTO 13008KT 10SM SCT090 M01/M03 A3022 RMK AO2 SLP236 T10111028 FZRANO
PAII 230356Z AUTO 11006KT 10SM CLR M03/M04 A3021 RMK AO2 SLP235 T10331044 FZRANO
PAII 230156Z AUTO 07004KT 10SM CLR M02/M04 A3023 RMK AO2 SLP239 T10171039 FZRANO
PAII 222356Z AUTO 07010KT 10SM CLR M01/M04 A3023 RMK AO2 SLP241 T10111039 11011 21078 58012 FZRANO
PAII 221956Z AUTO 09006KT 10SM OVC100 M06/M07 A3026 RMK AO2 SLP251 T10561067 FZRANO
PAII 221856Z AUTO 08007KT 10SM BKN110 M07/M08 A3027 RMK AO2 SLP253 T10721078 FZRANO
PAII 221756Z AUTO 08005KT 10SM OVC110 M08/M08 A3027 RMK AO2 SLP254 T10781083 11061 21078 58006 FZRANO
PAII 221556Z AUTO 11004KT 10SM CLR M07/M08 A3029 RMK AO2 SLP260 T10721078 FZRANO
PAII 221456Z AUTO 10005KT 10SM CLR M07/M08 A3029 RMK AO2 SLP261 T10721078 58003 FZRANO
PAII 221256Z AUTO 10004KT 10SM CLR M07/M08 A3030 RMK AO2 SLP264 T10671078 FZRANO
PAII 221156Z AUTO 00000KT 10SM CLR M07/M08 A3030 RMK AO2 SLP264 T10671078 11028 21067 50001 FZRANO
PAII 221056Z AUTO 20003KT 10SM CLR M06/M07 A3031 RMK AO2 SLP267 T10561067 FZRANO
PAII 220856Z AUTO 19003KT 10SM CLR M06/M06 A3030 RMK AO2 SLP263 T10561061 53004 FZRANO
PAII 220656Z AUTO 04003KT CLR M05/M06 A3027 RMK AO2 SLP256 T10501061 PWINO FZRANO $
PAII 220556Z AUTO 30004KT 10SM CLR M03/M04 A3029 RMK AO2 SLP259 T10281039 10006 21028 51008 FZRANO
PAII 220456Z AUTO 30006KT 10SM CLR M03/M04 A3028 RMK AO2 SLP256 T10281044 FZRANO
PAII 220256Z AUTO 28009KT 10SM CLR M01/M03 A3026 RMK AO2 SLP251 T10111033 51006 FZRANO
PAII 220156Z AUTO 29007G15KT 10SM CLR M01/M03 A3026 RMK AO2 SLP250 T10061028 FZRANO
PAII 220056Z AUTO 29010KT 10SM CLR 00/M03 A3025 RMK AO2 SLP246 T00001028 FZRANO
PAII 212356Z AUTO 29011KT 8SM CLR 01/M03 A3024 RMK AO2 SLP245 T00061028 10006 21011 51009 FZRANO
PAII 212256Z AUTO 29012G17KT 8SM CLR 01/M02 A3024 RMK AO2 SLP242 T00061022 FZRANO
PAII 212056Z AUTO 28014G17KT 6SM BR CLR 00/M02 A3022 RMK AO2 SLP235 T00001017 51032 FZRANO
PAII 211956Z AUTO 29014KT 8SM CLR M01/M02 A3019 RMK AO2 SLP227 T10061017 FZRANO
PAII 211856Z AUTO 29016G20KT 9SM CLR M01/M02 A3016 RMK AO2 SLP215 T10061017 FZRANO